createdAt,value
2018-10-21T00:00:21.794Z,96.22
2018-10-21T00:01:21.803Z,95.75
2018-10-21T00:02:21.895Z,95.94
2018-10-21T00:03:21.836Z,96.89
2018-10-21T00:04:21.853Z,97.22
2018-10-21T00:05:21.868Z,97.41
2018-10-21T00:06:21.883Z,97.69
2018-10-21T00:07:21.903Z,97.60
2018-10-21T00:08:21.916Z,97.08
2018-10-21T00:09:21.931Z,96.60
2018-10-21T00:10:21.957Z,96.70
2018-10-21T00:11:22.049Z,96.41
2018-10-21T00:12:21.974Z,95.65
2018-10-21T00:13:21.994Z,95.36
2018-10-21T00:14:22.010Z,95.46
2018-10-21T00:15:22.162Z,95.08
2018-10-21T00:16:22.045Z,95.36
2018-10-21T00:17:22.068Z,95.75
2018-10-21T00:18:22.070Z,96.84
2018-10-21T00:19:22.087Z,96.84
2018-10-21T00:20:22.103Z,97.13
2018-10-21T00:21:22.121Z,96.12
2018-10-21T00:22:22.134Z,95.98
2018-10-21T00:23:22.145Z,95.27
2018-10-21T00:24:22.163Z,95.46
2018-10-21T00:25:22.180Z,95.22
2018-10-21T00:26:22.200Z,95.41
2018-10-21T00:27:22.212Z,95.89
2018-10-21T00:28:22.229Z,96.08
2018-10-21T00:29:22.241Z,96.26
2018-10-21T00:30:22.257Z,96.17
2018-10-21T00:31:22.272Z,97.31
2018-10-21T00:32:22.300Z,97.31
2018-10-21T00:33:22.307Z,97.79
2018-10-21T00:34:22.316Z,98.27
2018-10-21T00:35:22.335Z,97.50
2018-10-21T00:36:22.357Z,97.88
2018-10-21T00:37:22.365Z,98.50
2018-10-21T00:38:22.381Z,98.88
2018-10-21T00:39:22.398Z,99.74
2018-10-21T00:40:22.413Z,99.45
2018-10-21T00:41:22.455Z,99.69
2018-10-21T00:42:22.448Z,99.12
2018-10-21T00:43:22.460Z,98.93
2018-10-21T00:44:22.472Z,98.27
2018-10-21T00:45:22.503Z,97.88
2018-10-21T00:46:22.509Z,97.98
2018-10-21T00:47:22.527Z,97.03
2018-10-21T00:48:22.541Z,96.70
2018-10-21T00:49:22.554Z,95.41
2018-10-21T00:50:22.567Z,95.51
2018-10-21T00:51:22.585Z,95.51
2018-10-21T00:52:22.603Z,95.70
2018-10-21T00:53:22.622Z,95.75
2018-10-21T00:54:22.641Z,94.98
2018-10-21T00:55:22.668Z,95.36
2018-10-21T00:56:22.682Z,95.17
2018-10-21T00:57:22.678Z,95.27
2018-10-21T00:58:22.718Z,95.46
2018-10-21T00:59:22.714Z,95.79
2018-10-21T01:00:22.752Z,97.13
2018-10-21T01:01:22.755Z,97.22
2018-10-21T01:02:22.759Z,97.08
2018-10-21T01:03:22.792Z,97.13
2018-10-21T01:04:22.791Z,96.84
2018-10-21T01:05:22.811Z,96.55
2018-10-21T01:06:22.819Z,97.88
2018-10-21T01:07:22.835Z,97.69
2018-10-21T01:08:22.851Z,97.60
2018-10-21T01:09:22.868Z,97.79
2018-10-21T01:10:22.889Z,98.97
2018-10-21T01:11:22.897Z,99.07
2018-10-21T01:12:22.915Z,99.07
2018-10-21T01:13:22.936Z,99.74
2018-10-21T01:14:22.946Z,98.79
2018-10-21T01:15:22.960Z,98.79
2018-10-21T01:16:22.971Z,98.88
2018-10-21T01:17:22.991Z,98.97
2018-10-21T01:18:23.027Z,98.08
2018-10-21T01:19:23.021Z,97.69
2018-10-21T01:20:23.037Z,97.69
2018-10-21T01:21:23.055Z,96.74
2018-10-21T01:22:23.070Z,96.26
2018-10-21T01:23:23.084Z,96.08
2018-10-21T01:24:23.100Z,95.70
2018-10-21T01:25:23.120Z,95.03
2018-10-21T01:26:23.132Z,95.22
2018-10-21T01:27:23.155Z,95.41
2018-10-21T01:28:23.166Z,95.22
2018-10-21T01:29:23.184Z,95.89
2018-10-21T01:30:23.204Z,96.84
2018-10-21T01:31:23.218Z,96.74
2018-10-21T01:32:23.232Z,96.74
2018-10-21T01:33:23.239Z,96.74
2018-10-21T01:34:23.263Z,96.84
2018-10-21T01:35:23.278Z,96.74
2018-10-21T01:36:23.460Z,96.55
2018-10-21T01:37:23.323Z,97.03
2018-10-21T01:38:23.364Z,96.74
2018-10-21T01:39:23.336Z,96.94
2018-10-21T01:40:23.354Z,97.13
2018-10-21T01:41:23.369Z,97.60
2018-10-21T01:42:23.380Z,98.27
2018-10-21T01:43:23.398Z,98.46
2018-10-21T01:44:23.410Z,98.46
2018-10-21T01:45:23.427Z,97.03
2018-10-21T01:46:23.447Z,97.22
2018-10-21T01:47:23.460Z,96.74
2018-10-21T01:48:23.483Z,97.60
2018-10-21T01:49:23.499Z,97.60
2018-10-21T01:50:23.505Z,98.27
2018-10-21T01:51:23.520Z,98.08
2018-10-21T01:52:23.567Z,98.41
2018-10-21T01:53:23.552Z,98.69
2018-10-21T01:54:23.568Z,99.36
2018-10-21T01:55:23.583Z,99.84
2018-10-21T01:56:23.594Z,99.55
2018-10-21T01:57:23.612Z,99.84
2018-10-21T01:58:23.631Z,99.99
2018-10-21T01:59:23.647Z,99.99
2018-10-21T02:00:23.664Z,99.74
2018-10-21T02:01:23.674Z,99.79
2018-10-21T02:02:23.687Z,99.07
2018-10-21T02:03:23.706Z,99.12
2018-10-21T02:04:23.724Z,98.27
2018-10-21T02:05:23.734Z,98.03
2018-10-21T02:06:23.756Z,97.83
2018-10-21T02:07:23.771Z,99.16
2018-10-21T02:08:23.785Z,99.26
2018-10-21T02:09:23.796Z,99.99
2018-10-21T02:10:23.812Z,99.99
2018-10-21T02:11:23.838Z,99.99
2018-10-21T02:12:23.844Z,99.99
2018-10-21T02:13:23.861Z,99.99
2018-10-21T02:14:23.879Z,99.99
2018-10-21T02:15:23.890Z,99.99
2018-10-21T02:16:23.916Z,99.99
2018-10-21T02:17:23.928Z,99.99
2018-10-21T02:18:23.937Z,99.99
2018-10-21T02:19:23.952Z,99.99
2018-10-21T02:20:23.968Z,99.99
2018-10-21T02:21:23.986Z,99.99
2018-10-21T02:22:23.997Z,99.99
2018-10-21T02:23:24.020Z,99.99
2018-10-21T02:24:24.038Z,99.99
2018-10-21T02:25:24.055Z,99.99
2018-10-21T02:26:24.130Z,99.99
2018-10-21T02:27:24.117Z,99.99
2018-10-21T02:28:24.104Z,99.99
2018-10-21T02:29:24.116Z,99.99
2018-10-21T02:30:24.136Z,99.99
2018-10-21T02:31:24.151Z,99.99
2018-10-21T02:32:24.157Z,99.99
2018-10-21T02:33:24.323Z,99.99
2018-10-21T02:34:24.192Z,99.99
2018-10-21T02:35:24.255Z,99.50
2018-10-21T02:36:24.220Z,99.41
2018-10-21T02:37:24.233Z,99.12
2018-10-21T02:38:24.264Z,99.22
2018-10-21T02:39:24.301Z,99.02
2018-10-21T02:40:24.281Z,98.74
2018-10-21T02:41:24.292Z,99.31
2018-10-21T02:42:24.317Z,99.02
2018-10-21T02:43:24.326Z,98.74
2018-10-21T02:44:24.346Z,98.17
2018-10-21T02:45:24.360Z,97.69
2018-10-21T02:46:24.372Z,97.79
2018-10-21T02:47:24.388Z,97.50
2018-10-21T02:48:24.402Z,98.27
2018-10-21T02:49:24.419Z,98.08
2018-10-21T02:50:24.443Z,98.08
2018-10-21T02:51:24.456Z,98.27
2018-10-21T02:52:24.467Z,98.36
2018-10-21T02:53:24.516Z,98.65
2018-10-21T02:54:24.500Z,98.08
2018-10-21T02:55:24.508Z,97.50
2018-10-21T02:56:24.540Z,97.50
2018-10-21T02:57:24.543Z,97.50
2018-10-21T02:58:24.562Z,97.60
2018-10-21T02:59:24.569Z,97.79
2018-10-21T03:00:24.593Z,97.31
2018-10-21T03:01:24.603Z,97.41
2018-10-21T03:02:24.617Z,97.50
2018-10-21T03:03:24.639Z,98.12
2018-10-21T03:04:24.652Z,99.16
2018-10-21T03:05:24.666Z,99.84
2018-10-21T03:06:24.680Z,99.99
2018-10-21T03:07:24.698Z,99.99
2018-10-21T03:08:24.712Z,99.99
2018-10-21T03:09:24.731Z,99.64
2018-10-21T03:10:24.743Z,99.99
2018-10-21T03:11:24.768Z,99.99
2018-10-21T03:12:24.781Z,99.99
2018-10-21T03:13:24.793Z,99.99
2018-10-21T03:14:24.805Z,99.99
2018-10-21T03:15:24.817Z,99.99
2018-10-21T03:16:24.852Z,99.99
2018-10-21T03:17:24.852Z,99.99
2018-10-21T03:18:24.915Z,99.99
2018-10-21T03:19:24.888Z,99.99
2018-10-21T03:20:24.904Z,99.59
2018-10-21T03:21:24.914Z,99.59
2018-10-21T03:22:24.931Z,99.59
2018-10-21T03:23:24.946Z,99.59
2018-10-21T03:24:24.957Z,99.11
2018-10-21T03:25:24.975Z,99.21
2018-10-21T03:26:24.994Z,97.97
2018-10-21T03:27:25.005Z,98.36
2018-10-21T03:28:25.018Z,98.93
2018-10-21T03:29:25.038Z,98.55
2018-10-21T03:30:25.059Z,98.07
2018-10-21T03:31:25.079Z,97.78
2018-10-21T03:32:25.081Z,99.02
2018-10-21T03:33:25.302Z,99.59
2018-10-21T03:34:25.115Z,99.99
2018-10-21T03:35:25.124Z,99.99
2018-10-21T03:36:25.161Z,99.99
2018-10-21T03:37:25.165Z,99.99
2018-10-21T03:38:25.172Z,99.99
2018-10-21T03:39:25.193Z,99.99
2018-10-21T03:40:25.207Z,99.99
2018-10-21T03:41:25.229Z,99.99
2018-10-21T03:42:25.239Z,99.99
2018-10-21T03:43:25.253Z,99.99
2018-10-21T03:44:25.268Z,99.99
2018-10-21T03:45:25.278Z,99.99
2018-10-21T03:46:25.296Z,99.99
2018-10-21T03:47:25.311Z,99.99
2018-10-21T03:48:25.327Z,99.99
2018-10-21T03:49:25.349Z,99.99
2018-10-21T03:50:25.358Z,99.99
2018-10-21T03:51:25.373Z,99.99
2018-10-21T03:52:25.405Z,99.99
2018-10-21T03:53:25.405Z,99.99
2018-10-21T03:54:25.424Z,98.93
2018-10-21T03:55:25.434Z,98.74
2018-10-21T03:56:25.444Z,98.83
2018-10-21T03:57:25.466Z,99.40
2018-10-21T03:58:25.480Z,99.11
2018-10-21T03:59:25.493Z,98.64
2018-10-21T04:00:25.524Z,99.11
2018-10-21T04:01:25.521Z,98.83
2018-10-21T04:02:25.544Z,99.02
2018-10-21T04:03:25.551Z,99.02
2018-10-21T04:04:25.567Z,99.21
2018-10-21T04:05:25.587Z,99.07
2018-10-21T04:06:25.602Z,99.99
2018-10-21T04:07:25.611Z,99.99
2018-10-21T04:08:25.630Z,99.99
2018-10-21T04:09:25.644Z,99.99
2018-10-21T04:10:25.667Z,99.99
2018-10-21T04:11:25.676Z,99.99
2018-10-21T04:12:25.691Z,99.99
2018-10-21T04:13:25.704Z,99.99
2018-10-21T04:14:25.719Z,99.99
2018-10-21T04:15:25.731Z,99.99
2018-10-21T04:16:25.747Z,99.99
2018-10-21T04:17:25.771Z,99.99
2018-10-21T04:18:25.779Z,99.99
2018-10-21T04:19:25.792Z,99.99
2018-10-21T04:20:25.815Z,99.99
2018-10-21T04:21:25.847Z,99.99
2018-10-21T04:22:25.848Z,99.99
2018-10-21T04:23:25.855Z,99.99
2018-10-21T04:24:25.869Z,99.92
2018-10-21T04:25:25.896Z,98.79
2018-10-21T04:26:25.902Z,98.97
2018-10-21T04:27:25.919Z,99.44
2018-10-21T04:28:25.931Z,99.54
2018-10-21T04:29:25.946Z,99.64
2018-10-21T04:30:25.960Z,99.07
2018-10-21T04:31:25.981Z,98.97
2018-10-21T04:32:25.995Z,99.16
2018-10-21T04:33:26.007Z,99.26
2018-10-21T04:34:26.033Z,98.88
2018-10-21T04:35:26.095Z,99.07
2018-10-21T04:36:26.053Z,99.07
2018-10-21T04:37:26.072Z,98.69
2018-10-21T04:38:26.089Z,98.69
2018-10-21T04:39:26.100Z,98.69
2018-10-21T04:40:26.115Z,99.26
2018-10-21T04:41:26.131Z,99.99
2018-10-21T04:42:26.154Z,99.99
2018-10-21T04:43:26.161Z,99.30
2018-10-21T04:44:26.177Z,99.99
2018-10-21T04:45:26.189Z,99.99
2018-10-21T04:46:26.215Z,99.97
2018-10-21T04:47:26.220Z,99.97
2018-10-21T04:48:26.233Z,99.99
2018-10-21T04:49:26.244Z,99.99
2018-10-21T04:50:26.262Z,99.30
2018-10-21T04:51:26.274Z,99.87
2018-10-21T04:52:26.289Z,99.68
2018-10-21T04:53:26.304Z,98.64
2018-10-21T04:54:26.320Z,99.21
2018-10-21T04:55:26.349Z,99.40
2018-10-21T04:56:26.353Z,98.83
2018-10-21T04:57:26.371Z,99.02
2018-10-21T04:58:26.382Z,98.97
2018-10-21T04:59:26.394Z,97.74
2018-10-21T05:00:26.415Z,98.02
2018-10-21T05:01:26.420Z,98.12
2018-10-21T05:02:26.448Z,97.92
2018-10-21T05:03:26.450Z,98.97
2018-10-21T05:04:26.468Z,99.87
2018-10-21T05:05:26.485Z,99.99
2018-10-21T05:06:26.500Z,99.99
2018-10-21T05:07:26.569Z,99.99
2018-10-21T05:08:26.535Z,99.99
2018-10-21T05:09:26.540Z,99.99
2018-10-21T05:10:26.560Z,99.87
2018-10-21T05:11:26.596Z,99.40
2018-10-21T05:12:26.586Z,99.68
2018-10-21T05:13:26.615Z,99.07
2018-10-21T05:14:26.616Z,99.11
2018-10-21T05:15:26.631Z,99.30
2018-10-21T05:16:26.740Z,99.99
2018-10-21T05:17:26.659Z,99.99
2018-10-21T05:18:26.676Z,99.21
2018-10-21T05:19:26.691Z,99.99
2018-10-21T05:20:26.701Z,99.99
2018-10-21T05:21:26.721Z,99.99
2018-10-21T05:22:26.738Z,99.99
2018-10-21T05:23:26.745Z,99.99
2018-10-21T05:24:26.762Z,99.99
2018-10-21T05:25:26.780Z,99.99
2018-10-21T05:26:26.802Z,99.99
2018-10-21T05:27:26.804Z,99.99
2018-10-21T05:28:26.826Z,99.99
2018-10-21T05:29:26.855Z,99.99
2018-10-21T05:30:26.848Z,99.99
2018-10-21T05:31:26.865Z,99.99
2018-10-21T05:32:26.880Z,99.99
2018-10-21T05:33:26.898Z,99.99
2018-10-21T05:34:26.945Z,99.99
2018-10-21T05:35:26.932Z,99.99
2018-10-21T05:36:26.938Z,99.99
2018-10-21T05:37:26.954Z,99.99
2018-10-21T05:38:26.986Z,99.99
2018-10-21T05:39:26.982Z,99.99
2018-10-21T05:40:27.035Z,99.99
2018-10-21T05:41:27.017Z,99.99
2018-10-21T05:42:27.045Z,99.99
2018-10-21T05:43:27.049Z,99.99
2018-10-21T05:44:27.061Z,99.99
2018-10-21T05:45:27.077Z,99.99
2018-10-21T05:46:27.091Z,99.99
2018-10-21T05:47:27.103Z,99.99
2018-10-21T05:48:27.116Z,99.99
2018-10-21T05:49:27.132Z,99.99
2018-10-21T05:50:27.152Z,99.99
2018-10-21T05:51:27.163Z,99.99
2018-10-21T05:52:27.177Z,99.99
2018-10-21T05:53:27.198Z,99.99
2018-10-21T05:54:27.212Z,99.99
2018-10-21T05:55:27.221Z,99.99
2018-10-21T05:56:27.252Z,99.99
2018-10-21T05:57:27.251Z,99.99
2018-10-21T05:58:27.271Z,99.99
2018-10-21T05:59:27.274Z,99.99
2018-10-21T06:00:27.289Z,99.99
2018-10-21T06:01:27.322Z,99.99
2018-10-21T06:02:27.327Z,99.99
2018-10-21T06:03:27.338Z,99.99
2018-10-21T06:04:27.374Z,99.99
2018-10-21T06:05:27.374Z,99.99
2018-10-21T06:06:27.380Z,99.99
2018-10-21T06:07:27.392Z,99.99
2018-10-21T06:08:27.420Z,99.99
2018-10-21T06:09:27.432Z,99.99
2018-10-21T06:10:27.443Z,99.99
2018-10-21T06:11:27.459Z,99.99
2018-10-21T06:12:27.475Z,99.99
2018-10-21T06:13:27.481Z,99.99
2018-10-21T06:14:27.496Z,99.99
2018-10-21T06:15:27.511Z,99.99
2018-10-21T06:16:27.527Z,99.99
2018-10-21T06:17:27.546Z,99.77
2018-10-21T06:18:27.556Z,99.40
2018-10-21T06:19:27.569Z,99.21
2018-10-21T06:20:27.597Z,99.02
2018-10-21T06:21:27.598Z,98.83
2018-10-21T06:22:27.610Z,99.02
2018-10-21T06:23:27.627Z,98.83
2018-10-21T06:24:27.641Z,98.73
2018-10-21T06:25:27.659Z,99.30
2018-10-21T06:26:27.673Z,98.92
2018-10-21T06:27:27.738Z,99.02
2018-10-21T06:28:27.697Z,98.83
2018-10-21T06:29:27.718Z,98.26
2018-10-21T06:30:27.733Z,97.50
2018-10-21T06:31:27.745Z,98.07
2018-10-21T06:32:27.757Z,98.12
2018-10-21T06:33:27.824Z,97.41
2018-10-21T06:34:27.786Z,97.55
2018-10-21T06:35:27.801Z,96.60
2018-10-21T06:36:27.818Z,96.41
2018-10-21T06:37:27.924Z,95.65
2018-10-21T06:38:27.847Z,96.03
2018-10-21T06:39:27.886Z,95.65
2018-10-21T06:40:27.890Z,96.22
2018-10-21T06:41:27.893Z,96.41
2018-10-21T06:42:27.920Z,96.03
2018-10-21T06:43:27.923Z,96.03
2018-10-21T06:44:27.936Z,96.74
2018-10-21T06:45:28.081Z,97.41
2018-10-21T06:46:27.976Z,98.54
2018-10-21T06:47:27.992Z,98.92
2018-10-21T06:48:28.026Z,99.02
2018-10-21T06:49:28.009Z,99.68
2018-10-21T06:50:28.026Z,99.77
2018-10-21T06:51:28.050Z,99.99
2018-10-21T06:52:28.065Z,99.77
2018-10-21T06:53:28.073Z,99.99
2018-10-21T06:54:28.094Z,99.99
2018-10-21T06:55:28.104Z,99.99
2018-10-21T06:56:28.235Z,99.77
2018-10-21T06:57:28.202Z,99.77
2018-10-21T06:58:28.147Z,99.99
2018-10-21T06:59:28.160Z,99.77
2018-10-21T07:00:28.174Z,99.11
2018-10-21T07:01:28.186Z,99.02
2018-10-21T07:02:28.203Z,98.83
2018-10-21T07:03:28.220Z,98.54
2018-10-21T07:04:28.266Z,98.45
2018-10-21T07:05:28.258Z,98.83
2018-10-21T07:06:28.269Z,99.40
2018-10-21T07:07:28.280Z,98.83
2018-10-21T07:08:28.292Z,99.02
2018-10-21T07:09:28.315Z,99.40
2018-10-21T07:10:28.324Z,99.58
2018-10-21T07:11:28.341Z,99.40
2018-10-21T07:12:28.355Z,99.83
2018-10-21T07:13:28.371Z,99.99
2018-10-21T07:14:28.397Z,99.99
2018-10-21T07:15:28.436Z,99.99
2018-10-21T07:16:28.497Z,99.99
2018-10-21T07:17:28.436Z,99.99
2018-10-21T07:18:28.444Z,99.99
2018-10-21T07:19:28.460Z,99.99
2018-10-21T07:20:28.477Z,99.99
2018-10-21T07:21:28.487Z,99.99
2018-10-21T07:22:28.517Z,99.99
2018-10-21T07:23:28.524Z,99.99
2018-10-21T07:24:28.540Z,99.26
2018-10-21T07:25:28.556Z,99.54
2018-10-21T07:26:28.578Z,99.54
2018-10-21T07:27:28.592Z,99.64
2018-10-21T07:28:28.608Z,99.54
2018-10-21T07:29:28.628Z,99.26
2018-10-21T07:30:28.631Z,97.78
2018-10-21T07:31:28.655Z,97.03
2018-10-21T07:32:28.656Z,97.03
2018-10-21T07:33:28.678Z,97.97
2018-10-21T07:34:28.693Z,98.17
2018-10-21T07:35:28.709Z,98.93
2018-10-21T07:36:28.830Z,99.02
2018-10-21T07:37:28.732Z,99.50
2018-10-21T07:38:28.758Z,99.99
2018-10-21T07:39:28.766Z,99.50
2018-10-21T07:40:28.794Z,99.11
2018-10-21T07:41:28.810Z,99.11
2018-10-21T07:42:28.818Z,99.99
2018-10-21T07:43:28.833Z,99.99
2018-10-21T07:44:28.843Z,99.99
2018-10-21T07:45:28.860Z,99.99
2018-10-21T07:46:28.876Z,99.97
2018-10-21T07:47:28.892Z,99.99
2018-10-21T07:48:28.903Z,99.74
2018-10-21T07:49:28.919Z,99.07
2018-10-21T07:50:29.688Z,99.16
2018-10-21T07:51:29.072Z,99.36
2018-10-21T07:52:28.971Z,99.26
2018-10-21T07:53:28.984Z,99.36
2018-10-21T07:54:28.998Z,99.36
2018-10-21T07:55:29.017Z,98.36
2018-10-21T07:56:29.030Z,97.31
2018-10-21T07:57:29.045Z,95.41
2018-10-21T07:58:29.060Z,94.79
2018-10-21T07:59:29.078Z,95.36
2018-10-21T08:00:29.107Z,94.89
2018-10-21T08:01:29.181Z,94.51
2018-10-21T08:02:29.142Z,94.42
2018-10-21T08:03:29.140Z,95.27
2018-10-21T08:04:29.156Z,94.22
2018-10-21T08:05:29.172Z,93.65
2018-10-21T08:06:29.220Z,93.13
2018-10-21T08:07:29.204Z,93.03
2018-10-21T08:08:29.225Z,93.03
2018-10-21T08:09:29.242Z,92.36
2018-10-21T08:10:29.249Z,91.89
2018-10-21T08:11:29.264Z,90.94
2018-10-21T08:12:29.282Z,90.41
2018-10-21T08:13:29.308Z,90.31
2018-10-21T08:14:29.350Z,91.31
2018-10-21T08:15:29.339Z,92.27
2018-10-21T08:16:29.351Z,91.65
2018-10-21T08:17:29.391Z,91.17
2018-10-21T08:18:29.381Z,90.41
2018-10-21T08:19:29.398Z,89.98
2018-10-21T08:20:29.418Z,88.93
2018-10-21T08:21:29.426Z,88.36
2018-10-21T08:22:29.445Z,87.50
2018-10-21T08:23:29.459Z,87.60
2018-10-21T08:24:29.478Z,88.84
2018-10-21T08:25:29.496Z,88.55
2018-10-21T08:26:29.522Z,87.07
2018-10-21T08:27:29.545Z,86.30
2018-10-21T08:28:29.545Z,85.16
2018-10-21T08:29:29.560Z,85.45
2018-10-21T08:30:29.576Z,85.35
2018-10-21T08:31:29.596Z,84.97
2018-10-21T08:32:29.621Z,85.54
2018-10-21T08:33:29.628Z,85.93
2018-10-21T08:34:29.644Z,85.64
2018-10-21T08:35:29.658Z,85.64
2018-10-21T08:36:29.684Z,85.60
2018-10-21T08:37:29.699Z,86.49
2018-10-21T08:38:29.718Z,86.30
2018-10-21T08:39:29.725Z,84.59
2018-10-21T08:40:29.742Z,84.69
2018-10-21T08:41:29.765Z,84.97
2018-10-21T08:42:29.782Z,84.49
2018-10-21T08:43:29.798Z,84.11
2018-10-21T08:44:29.809Z,84.53
2018-10-21T08:45:29.839Z,84.06
2018-10-21T08:46:29.902Z,83.96
2018-10-21T08:47:29.861Z,83.39
2018-10-21T08:48:29.877Z,83.48
2018-10-21T08:49:29.946Z,83.25
2018-10-21T08:50:29.918Z,84.49
2018-10-21T08:51:29.943Z,85.41
2018-10-21T08:52:29.945Z,85.21
2018-10-21T08:53:29.971Z,86.49
2018-10-21T08:54:29.997Z,86.02
2018-10-21T08:55:30.003Z,85.68
2018-10-21T08:56:30.018Z,84.06
2018-10-21T08:57:30.032Z,82.82
2018-10-21T08:58:30.065Z,82.09
2018-10-21T08:59:30.067Z,82.29
2018-10-21T09:00:30.086Z,82.29
2018-10-21T09:01:30.108Z,82.95
2018-10-21T09:02:30.120Z,83.24
2018-10-21T09:03:30.135Z,82.29
2018-10-21T09:04:30.205Z,81.90
2018-10-21T09:05:30.171Z,81.66
2018-10-21T09:06:30.187Z,81.37
2018-10-21T09:07:30.214Z,81.56
2018-10-21T09:08:30.220Z,80.90
2018-10-21T09:09:30.243Z,80.90
2018-10-21T09:10:30.362Z,80.90
2018-10-21T09:11:30.276Z,80.70
2018-10-21T09:12:30.294Z,80.41
2018-10-21T09:13:30.315Z,79.56
2018-10-21T09:14:30.327Z,80.90
2018-10-21T09:15:30.432Z,81.27
2018-10-21T09:16:30.401Z,81.27
2018-10-21T09:17:30.379Z,81.47
2018-10-21T09:18:30.399Z,81.85
2018-10-21T09:19:30.410Z,81.13
2018-10-21T09:20:30.431Z,80.65
2018-10-21T09:21:30.448Z,80.22
2018-10-21T09:22:30.484Z,81.09
2018-10-21T09:23:30.502Z,80.93
2018-10-21T09:24:30.508Z,80.36
2018-10-21T09:25:30.516Z,80.36
2018-10-21T09:26:30.537Z,80.27
2018-10-21T09:27:30.557Z,80.07
2018-10-21T09:28:30.571Z,80.27
2018-10-21T09:29:30.590Z,80.17
2018-10-21T09:30:30.607Z,80.27
2018-10-21T09:31:30.628Z,80.36
2018-10-21T09:32:30.642Z,79.79
2018-10-21T09:33:30.803Z,80.46
2018-10-21T09:34:30.677Z,79.35
2018-10-21T09:35:30.709Z,78.11
2018-10-21T09:36:30.739Z,77.25
2018-10-21T09:37:30.731Z,77.19
2018-10-21T09:38:30.747Z,76.14
2018-10-21T09:39:30.767Z,75.34
2018-10-21T09:40:30.801Z,75.76
2018-10-21T09:41:30.814Z,75.66
2018-10-21T09:42:30.821Z,77.53
2018-10-21T09:43:30.839Z,78.45
2018-10-21T09:44:30.853Z,79.31
2018-10-21T09:45:30.900Z,79.79
2018-10-21T09:46:30.890Z,80.61
2018-10-21T09:47:30.911Z,81.66
2018-10-21T09:48:30.927Z,81.13
2018-10-21T09:49:30.949Z,80.46
2018-10-21T09:50:30.967Z,80.02
2018-10-21T09:51:30.977Z,78.72
2018-10-21T09:52:30.998Z,76.81
2018-10-21T09:53:31.031Z,76.42
2018-10-21T09:54:31.034Z,75.95
2018-10-21T09:55:31.050Z,75.09
2018-10-21T09:56:31.069Z,75.37
2018-10-21T09:57:31.095Z,75.56
2018-10-21T09:58:31.139Z,75.12
2018-10-21T09:59:31.119Z,74.16
2018-10-21T10:00:31.143Z,74.55
2018-10-21T10:01:31.157Z,74.84
2018-10-21T10:02:31.177Z,74.55
2018-10-21T10:03:31.192Z,74.40
2018-10-21T10:04:31.214Z,74.74
2018-10-21T10:05:31.232Z,75.91
2018-10-21T10:06:31.246Z,77.38
2018-10-21T10:07:31.277Z,77.67
2018-10-21T10:08:31.289Z,76.33
2018-10-21T10:09:31.308Z,75.37
2018-10-21T10:10:31.319Z,76.67
2018-10-21T10:11:31.339Z,78.74
2018-10-21T10:12:31.364Z,79.60
2018-10-21T10:13:31.379Z,80.11
2018-10-21T10:14:31.399Z,79.54
2018-10-21T10:15:31.411Z,78.53
2018-10-21T10:16:31.429Z,77.61
2018-10-21T10:17:31.486Z,76.18
2018-10-21T10:18:31.468Z,75.12
2018-10-21T10:19:31.482Z,74.97
2018-10-21T10:20:31.509Z,75.12
2018-10-21T10:21:31.516Z,75.12
2018-10-21T10:22:31.544Z,75.51
2018-10-21T10:23:31.616Z,75.47
2018-10-21T10:24:31.572Z,76.86
2018-10-21T10:25:31.595Z,78.87
2018-10-21T10:26:31.617Z,78.24
2018-10-21T10:27:31.641Z,77.19
2018-10-21T10:28:31.655Z,76.52
2018-10-21T10:29:31.666Z,76.14
2018-10-21T10:30:31.739Z,76.77
2018-10-21T10:31:31.695Z,77.44
2018-10-21T10:32:31.717Z,78.11
2018-10-21T10:33:31.738Z,78.58
2018-10-21T10:34:31.757Z,79.73
2018-10-21T10:35:31.785Z,78.38
2018-10-21T10:36:31.791Z,76.37
2018-10-21T10:37:31.815Z,75.16
2018-10-21T10:38:31.833Z,74.68
2018-10-21T10:39:31.843Z,75.16
2018-10-21T10:40:31.877Z,75.01
2018-10-21T10:41:31.898Z,74.05
2018-10-21T10:42:31.900Z,74.01
2018-10-21T10:43:31.918Z,74.40
2018-10-21T10:44:31.940Z,75.98
2018-10-21T10:45:31.957Z,77.04
2018-10-21T10:46:31.982Z,77.42
2018-10-21T10:47:31.991Z,78.09
2018-10-21T10:48:32.014Z,77.42
2018-10-21T10:49:32.026Z,77.04
2018-10-21T10:50:32.047Z,77.51
2018-10-21T10:51:32.067Z,77.55
2018-10-21T10:52:32.082Z,76.98
2018-10-21T10:53:32.100Z,75.87
2018-10-21T10:54:32.119Z,75.87
2018-10-21T10:55:32.137Z,75.77
2018-10-21T10:56:32.154Z,77.11
2018-10-21T10:57:32.172Z,77.40
2018-10-21T10:58:32.194Z,77.59
2018-10-21T10:59:32.229Z,77.69
2018-10-21T11:00:32.235Z,78.42
2018-10-21T11:01:32.245Z,78.22
2018-10-21T11:02:32.275Z,78.42
2018-10-21T11:03:32.286Z,79.08
2018-10-21T11:04:32.299Z,80.38
2018-10-21T11:05:32.319Z,80.48
2018-10-21T11:06:32.339Z,80.43
2018-10-21T11:07:32.359Z,80.10
2018-10-21T11:08:32.376Z,79.85
2018-10-21T11:09:32.395Z,78.70
2018-10-21T11:10:32.416Z,79.33
2018-10-21T11:11:32.428Z,80.48
2018-10-21T11:12:32.453Z,80.29
2018-10-21T11:13:32.474Z,79.62
2018-10-21T11:14:32.514Z,80.04
2018-10-21T11:15:32.512Z,79.18
2018-10-21T11:16:32.524Z,79.66
2018-10-21T11:17:32.542Z,79.08
2018-10-21T11:18:32.555Z,79.91
2018-10-21T11:19:32.576Z,80.29
2018-10-21T11:20:32.597Z,81.54
2018-10-21T11:21:32.608Z,81.92
2018-10-21T11:22:32.641Z,81.73
2018-10-21T11:23:32.655Z,81.82
2018-10-21T11:24:32.671Z,81.34
2018-10-21T11:25:32.688Z,81.15
2018-10-21T11:26:32.713Z,81.54
2018-10-21T11:27:32.724Z,81.57
2018-10-21T11:28:32.735Z,81.29
2018-10-21T11:29:32.757Z,81.29
2018-10-21T11:30:32.777Z,81.73
2018-10-21T11:31:32.789Z,82.40
2018-10-21T11:32:32.809Z,84.08
2018-10-21T11:33:32.828Z,83.45
2018-10-21T11:34:32.851Z,83.36
2018-10-21T11:35:32.864Z,82.40
2018-10-21T11:36:32.905Z,82.34
2018-10-21T11:37:33.118Z,81.82
2018-10-21T11:38:32.919Z,82.30
2018-10-21T11:39:32.937Z,83.06
2018-10-21T11:40:32.955Z,82.40
2018-10-21T11:41:32.974Z,82.30
2018-10-21T11:42:32.992Z,82.11
2018-10-21T11:43:33.013Z,82.49
2018-10-21T11:44:33.029Z,82.34
2018-10-21T11:45:33.051Z,81.67
2018-10-21T11:46:33.166Z,81.29
2018-10-21T11:47:33.083Z,80.66
2018-10-21T11:48:33.103Z,80.90
2018-10-21T11:49:33.115Z,80.90
2018-10-21T11:50:33.136Z,80.81
2018-10-21T11:51:33.152Z,81.57
2018-10-21T11:52:33.207Z,81.77
2018-10-21T11:53:33.186Z,82.30
2018-10-21T11:54:33.204Z,82.24
2018-10-21T11:55:33.227Z,82.06
2018-10-21T11:56:33.244Z,81.86
2018-10-21T11:57:33.272Z,80.66
2018-10-21T11:58:33.277Z,80.62
2018-10-21T11:59:33.300Z,81.13
2018-10-21T12:00:33.324Z,81.20
2018-10-21T12:01:33.334Z,81.29
2018-10-21T12:02:33.350Z,81.77
2018-10-21T12:03:33.366Z,80.71
2018-10-21T12:04:33.384Z,80.94
2018-10-21T12:05:33.404Z,80.76
2018-10-21T12:06:33.425Z,80.37
2018-10-21T12:07:33.443Z,81.29
2018-10-21T12:08:33.455Z,81.13
2018-10-21T12:09:33.491Z,80.66
2018-10-21T12:10:33.496Z,80.47
2018-10-21T12:11:34.152Z,80.66
2018-10-21T12:12:33.528Z,80.56
2018-10-21T12:13:33.550Z,80.47
2018-10-21T12:14:33.564Z,81.10
2018-10-21T12:15:33.582Z,81.20
2018-10-21T12:16:33.598Z,80.66
2018-10-21T12:17:33.620Z,80.47
2018-10-21T12:18:33.636Z,80.37
2018-10-21T12:19:33.661Z,80.18
2018-10-21T12:20:33.672Z,80.56
2018-10-21T12:21:33.692Z,80.47
2018-10-21T12:22:33.737Z,79.83
2018-10-21T12:23:33.812Z,78.88
2018-10-21T12:24:33.750Z,78.59
2018-10-21T12:25:33.816Z,78.30
2018-10-21T12:26:33.787Z,78.59
2018-10-21T12:27:33.808Z,78.97
2018-10-21T12:28:33.817Z,78.30
2018-10-21T12:29:33.840Z,78.97
2018-10-21T12:30:33.858Z,78.11
2018-10-21T12:31:33.873Z,78.49
2018-10-21T12:32:33.897Z,78.40
2018-10-21T12:33:34.047Z,78.97
2018-10-21T12:34:33.941Z,78.88
2018-10-21T12:35:33.945Z,77.92
2018-10-21T12:36:33.963Z,77.82
2018-10-21T12:37:33.984Z,78.11
2018-10-21T12:38:34.001Z,78.49
2018-10-21T12:39:34.033Z,78.02
2018-10-21T12:40:34.039Z,78.11
2018-10-21T12:41:34.057Z,76.90
2018-10-21T12:42:34.078Z,77.15
2018-10-21T12:43:34.093Z,77.15
2018-10-21T12:44:34.121Z,76.39
2018-10-21T12:45:34.168Z,76.42
2018-10-21T12:46:34.165Z,76.71
2018-10-21T12:47:34.171Z,76.32
2018-10-21T12:48:34.195Z,75.85
2018-10-21T12:49:34.246Z,76.04
2018-10-21T12:50:34.231Z,75.18
2018-10-21T12:51:34.236Z,74.02
2018-10-21T12:52:34.262Z,73.93